sensor_id;sensor_type;location;lat;lon;timestamp;pressure;altitude;pressure_sealevel;temperature;humidity
60705;BME280;46545;38.014;-7.874;2023-07-13T00:01:35;65176.66;;;-145.13;100.00
60705;BME280;46545;38.014;-7.874;2023-07-13T00:03:36;65176.66;;;-145.13;100.00
60705;BME280;46545;38.014;-7.874;2023-07-13T00:05:36;65176.66;;;-145.13;100.00
60705;BME280;46545;38.014;-7.874;2023-07-13T00:07:37;65176.66;;;-145.13;100.00
60705;BME280;46545;38.014;-7.874;2023-07-13T00:09:37;65176.66;;;-145.13;100.00
60705;BME280;46545;38.014;-7.874;2023-07-13T00:11:38;65176.66;;;-145.13;100.00
60705;BME280;46545;38.014;-7.874;2023-07-13T00:13:39;65176.66;;;-145.13;100.00
60705;BME280;46545;38.014;-7.874;2023-07-13T00:15:40;65176.66;;;-145.13;100.00
60705;BME280;46545;38.014;-7.874;2023-07-13T00:17:41;65176.66;;;-145.13;100.00
60705;BME280;46545;38.014;-7.874;2023-07-13T00:19:41;65176.66;;;-145.13;100.00
60705;BME280;46545;38.014;-7.874;2023-07-13T00:21:42;65176.66;;;-145.13;100.00
60705;BME280;46545;38.014;-7.874;2023-07-13T00:23:43;65176.66;;;-145.13;100.00
60705;BME280;46545;38.014;-7.874;2023-07-13T00:25:43;65176.66;;;-145.13;100.00
60705;BME280;46545;38.014;-7.874;2023-07-13T00:27:44;65176.66;;;-145.13;100.00
60705;BME280;46545;38.014;-7.874;2023-07-13T00:29:44;65176.66;;;-145.13;100.00
60705;BME280;46545;38.014;-7.874;2023-07-13T00:31:46;65176.66;;;-145.13;100.00
60705;BME280;46545;38.014;-7.874;2023-07-13T00:33:46;65176.66;;;-145.13;100.00
60705;BME280;46545;38.014;-7.874;2023-07-13T00:35:49;65176.66;;;-145.13;100.00
60705;BME280;46545;38.014;-7.874;2023-07-13T00:37:49;65176.66;;;-145.13;100.00
60705;BME280;46545;38.014;-7.874;2023-07-13T00:39:51;65176.66;;;-145.13;100.00
60705;BME280;46545;38.014;-7.874;2023-07-13T00:41:52;65176.66;;;-145.13;100.00
60705;BME280;46545;38.014;-7.874;2023-07-13T00:43:53;65176.66;;;-145.13;100.00
60705;BME280;46545;38.014;-7.874;2023-07-13T00:46:31;65176.66;;;-145.13;100.00
60705;BME280;46545;38.014;-7.874;2023-07-13T00:48:34;65176.66;;;-145.13;100.00
60705;BME280;46545;38.014;-7.874;2023-07-13T00:50:36;65176.66;;;-145.13;100.00
60705;BME280;46545;38.014;-7.874;2023-07-13T00:52:41;65176.66;;;-145.13;100.00
60705;BME280;46545;38.014;-7.874;2023-07-13T00:54:44;65176.66;;;-145.13;100.00
60705;BME280;46545;38.014;-7.874;2023-07-13T00:56:50;65176.66;;;-145.13;100.00
60705;BME280;46545;38.014;-7.874;2023-07-13T00:58:52;65176.66;;;-145.13;100.00
60705;BME280;46545;38.014;-7.874;2023-07-13T01:00:54;65176.66;;;-145.13;100.00
60705;BME280;46545;38.014;-7.874;2023-07-13T01:02:54;65176.66;;;-145.13;100.00
60705;BME280;46545;38.014;-7.874;2023-07-13T01:04:56;65176.66;;;-145.13;100.00
60705;BME280;46545;38.014;-7.874;2023-07-13T01:06:57;65176.66;;;-145.13;100.00
60705;BME280;46545;38.014;-7.874;2023-07-13T01:08:59;65176.66;;;-145.13;100.00
60705;BME280;46545;38.014;-7.874;2023-07-13T01:11:01;65176.66;;;-145.13;100.00
60705;BME280;46545;38.014;-7.874;2023-07-13T01:13:02;65176.66;;;-145.13;100.00
60705;BME280;46545;38.014;-7.874;2023-07-13T01:15:04;65176.66;;;-145.13;100.00
60705;BME280;46545;38.014;-7.874;2023-07-13T01:17:09;65176.66;;;-145.13;100.00
60705;BME280;46545;38.014;-7.874;2023-07-13T01:19:38;65176.66;;;-145.13;100.00
60705;BME280;46545;38.014;-7.874;2023-07-13T01:21:39;65176.66;;;-145.13;100.00
60705;BME280;46545;38.014;-7.874;2023-07-13T01:23:43;65176.66;;;-145.13;100.00
60705;BME280;46545;38.014;-7.874;2023-07-13T01:25:44;65176.66;;;-145.13;100.00
60705;BME280;46545;38.014;-7.874;2023-07-13T01:27:45;65176.66;;;-145.13;100.00
60705;BME280;46545;38.014;-7.874;2023-07-13T01:29:46;65176.66;;;-145.13;100.00
60705;BME280;46545;38.014;-7.874;2023-07-13T01:31:48;65176.66;;;-145.13;100.00
60705;BME280;46545;38.014;-7.874;2023-07-13T01:33:48;65176.66;;;-145.13;100.00
60705;BME280;46545;38.014;-7.874;2023-07-13T01:35:49;65176.66;;;-145.13;100.00
60705;BME280;46545;38.014;-7.874;2023-07-13T01:37:51;65176.66;;;-145.13;100.00
60705;BME280;46545;38.014;-7.874;2023-07-13T01:39:52;65176.66;;;-145.13;100.00
60705;BME280;46545;38.014;-7.874;2023-07-13T01:41:52;65176.66;;;-145.13;100.00
60705;BME280;46545;38.014;-7.874;2023-07-13T01:43:54;65176.66;;;-145.13;100.00
60705;BME280;46545;38.014;-7.874;2023-07-13T01:45:55;65176.66;;;-145.13;100.00
60705;BME280;46545;38.014;-7.874;2023-07-13T01:47:55;65176.66;;;-145.13;100.00
60705;BME280;46545;38.014;-7.874;2023-07-13T01:49:57;65176.66;;;-145.13;100.00
60705;BME280;46545;38.014;-7.874;2023-07-13T01:51:57;65176.66;;;-145.13;100.00
60705;BME280;46545;38.014;-7.874;2023-07-13T01:53:58;65176.66;;;-145.13;100.00
60705;BME280;46545;38.014;-7.874;2023-07-13T01:55:59;65176.66;;;-145.13;100.00
60705;BME280;46545;38.014;-7.874;2023-07-13T01:57:59;65176.66;;;-145.13;100.00
60705;BME280;46545;38.014;-7.874;2023-07-13T02:00:03;65176.66;;;-145.13;100.00
60705;BME280;46545;38.014;-7.874;2023-07-13T02:02:16;65176.66;;;-145.13;100.00
60705;BME280;46545;38.014;-7.874;2023-07-13T02:04:16;65176.66;;;-145.13;100.00
60705;BME280;46545;38.014;-7.874;2023-07-13T02:06:17;65176.66;;;-145.13;100.00
60705;BME280;46545;38.014;-7.874;2023-07-13T02:08:18;65176.66;;;-145.13;100.00
60705;BME280;46545;38.014;-7.874;2023-07-13T02:10:18;65176.66;;;-145.13;100.00
60705;BME280;46545;38.014;-7.874;2023-07-13T02:12:19;65176.66;;;-145.13;100.00
60705;BME280;46545;38.014;-7.874;2023-07-13T02:14:20;65176.66;;;-145.13;100.00
60705;BME280;46545;38.014;-7.874;2023-07-13T02:16:21;65176.66;;;-145.13;100.00
60705;BME280;46545;38.014;-7.874;2023-07-13T02:18:21;65176.66;;;-145.13;100.00
60705;BME280;46545;38.014;-7.874;2023-07-13T02:20:22;65176.66;;;-145.13;100.00
60705;BME280;46545;38.014;-7.874;2023-07-13T02:22:23;65176.66;;;-145.13;100.00
60705;BME280;46545;38.014;-7.874;2023-07-13T02:24:24;65176.66;;;-145.13;100.00
60705;BME280;46545;38.014;-7.874;2023-07-13T02:26:24;65176.66;;;-145.13;100.00
60705;BME280;46545;38.014;-7.874;2023-07-13T02:28:25;65176.66;;;-145.13;100.00
60705;BME280;46545;38.014;-7.874;2023-07-13T02:30:27;65176.66;;;-145.13;100.00
60705;BME280;46545;38.014;-7.874;2023-07-13T02:32:29;65176.66;;;-145.13;100.00
60705;BME280;46545;38.014;-7.874;2023-07-13T02:34:30;65176.66;;;-145.13;100.00
60705;BME280;46545;38.014;-7.874;2023-07-13T02:36:31;65176.66;;;-145.13;100.00
60705;BME280;46545;38.014;-7.874;2023-07-13T02:38:33;65176.66;;;-145.13;100.00
60705;BME280;46545;38.014;-7.874;2023-07-13T02:40:36;65176.66;;;-145.13;100.00
60705;BME280;46545;38.014;-7.874;2023-07-13T02:42:37;65176.66;;;-145.13;100.00
60705;BME280;46545;38.014;-7.874;2023-07-13T02:44:37;65176.66;;;-145.13;100.00
60705;BME280;46545;38.014;-7.874;2023-07-13T02:46:38;65176.66;;;-145.13;100.00
60705;BME280;46545;38.014;-7.874;2023-07-13T02:48:39;65176.66;;;-145.13;100.00
60705;BME280;46545;38.014;-7.874;2023-07-13T02:50:40;65176.66;;;-145.13;100.00
60705;BME280;46545;38.014;-7.874;2023-07-13T02:52:40;65176.66;;;-145.13;100.00
60705;BME280;46545;38.014;-7.874;2023-07-13T02:54:41;65176.66;;;-145.13;100.00
60705;BME280;46545;38.014;-7.874;2023-07-13T02:56:42;65176.66;;;-145.13;100.00
60705;BME280;46545;38.014;-7.874;2023-07-13T02:58:44;65176.66;;;-145.13;100.00
60705;BME280;46545;38.014;-7.874;2023-07-13T03:00:45;65176.66;;;-145.13;100.00
60705;BME280;46545;38.014;-7.874;2023-07-13T03:02:46;65176.66;;;-145.13;100.00
60705;BME280;46545;38.014;-7.874;2023-07-13T03:04:47;65176.66;;;-145.13;100.00
60705;BME280;46545;38.014;-7.874;2023-07-13T03:06:48;65176.66;;;-145.13;100.00
60705;BME280;46545;38.014;-7.874;2023-07-13T03:08:49;65176.66;;;-145.13;100.00
60705;BME280;46545;38.014;-7.874;2023-07-13T03:10:59;65176.66;;;-145.13;100.00
60705;BME280;46545;38.014;-7.874;2023-07-13T03:13:04;65176.66;;;-145.13;100.00
60705;BME280;46545;38.014;-7.874;2023-07-13T03:15:05;65176.66;;;-145.13;100.00
60705;BME280;46545;38.014;-7.874;2023-07-13T03:17:07;65176.66;;;-145.13;100.00
60705;BME280;46545;38.014;-7.874;2023-07-13T03:19:11;65176.66;;;-145.13;100.00
60705;BME280;46545;38.014;-7.874;2023-07-13T03:21:12;65176.66;;;-145.13;100.00
60705;BME280;46545;38.014;-7.874;2023-07-13T03:23:13;65176.66;;;-145.13;100.00
60705;BME280;46545;38.014;-7.874;2023-07-13T03:25:14;65176.66;;;-145.13;100.00
60705;BME280;46545;38.014;-7.874;2023-07-13T03:27:17;65176.66;;;-145.13;100.00
60705;BME280;46545;38.014;-7.874;2023-07-13T03:29:18;65176.66;;;-145.13;100.00
60705;BME280;46545;38.014;-7.874;2023-07-13T03:31:22;65176.66;;;-145.13;100.00
60705;BME280;46545;38.014;-7.874;2023-07-13T03:33:23;65176.66;;;-145.13;100.00
60705;BME280;46545;38.014;-7.874;2023-07-13T03:35:23;65176.66;;;-145.13;100.00
60705;BME280;46545;38.014;-7.874;2023-07-13T03:37:24;65176.66;;;-145.13;100.00
60705;BME280;46545;38.014;-7.874;2023-07-13T03:39:25;65176.66;;;-145.13;100.00
60705;BME280;46545;38.014;-7.874;2023-07-13T03:41:29;65176.66;;;-145.13;100.00
60705;BME280;46545;38.014;-7.874;2023-07-13T03:43:31;65176.66;;;-145.13;100.00
60705;BME280;46545;38.014;-7.874;2023-07-13T03:45:31;65176.66;;;-145.13;100.00
60705;BME280;46545;38.014;-7.874;2023-07-13T03:47:32;65176.66;;;-145.13;100.00
60705;BME280;46545;38.014;-7.874;2023-07-13T03:49:36;65176.66;;;-145.13;100.00
60705;BME280;46545;38.014;-7.874;2023-07-13T03:51:37;65176.66;;;-145.13;100.00
60705;BME280;46545;38.014;-7.874;2023-07-13T03:53:40;65176.66;;;-145.13;100.00
60705;BME280;46545;38.014;-7.874;2023-07-13T03:55:42;65176.66;;;-145.13;100.00
60705;BME280;46545;38.014;-7.874;2023-07-13T03:57:42;65176.66;;;-145.13;100.00
60705;BME280;46545;38.014;-7.874;2023-07-13T03:59:43;65176.66;;;-145.13;100.00
60705;BME280;46545;38.014;-7.874;2023-07-13T04:01:44;65176.66;;;-145.13;100.00
60705;BME280;46545;38.014;-7.874;2023-07-13T04:03:46;65176.66;;;-145.13;100.00
60705;BME280;46545;38.014;-7.874;2023-07-13T04:05:48;65176.66;;;-145.13;100.00
60705;BME280;46545;38.014;-7.874;2023-07-13T04:07:48;65176.66;;;-145.13;100.00
60705;BME280;46545;38.014;-7.874;2023-07-13T04:09:49;65176.66;;;-145.13;100.00
60705;BME280;46545;38.014;-7.874;2023-07-13T04:11:50;65176.66;;;-145.13;100.00
60705;BME280;46545;38.014;-7.874;2023-07-13T04:13:51;65176.66;;;-145.13;100.00
60705;BME280;46545;38.014;-7.874;2023-07-13T04:15:52;65176.66;;;-145.13;100.00
60705;BME280;46545;38.014;-7.874;2023-07-13T04:17:53;65176.66;;;-145.13;100.00
60705;BME280;46545;38.014;-7.874;2023-07-13T04:19:54;65176.66;;;-145.13;100.00
60705;BME280;46545;38.014;-7.874;2023-07-13T04:21:54;65176.66;;;-145.13;100.00
60705;BME280;46545;38.014;-7.874;2023-07-13T04:23:55;65176.66;;;-145.13;100.00
60705;BME280;46545;38.014;-7.874;2023-07-13T04:25:55;65176.66;;;-145.13;100.00
60705;BME280;46545;38.014;-7.874;2023-07-13T04:27:56;65176.66;;;-145.13;100.00
60705;BME280;46545;38.014;-7.874;2023-07-13T04:29:57;65176.66;;;-145.13;100.00
60705;BME280;46545;38.014;-7.874;2023-07-13T04:31:58;65176.66;;;-145.13;100.00
60705;BME280;46545;38.014;-7.874;2023-07-13T04:33:58;65176.66;;;-145.13;100.00
60705;BME280;46545;38.014;-7.874;2023-07-13T04:35:59;65176.66;;;-145.13;100.00
60705;BME280;46545;38.014;-7.874;2023-07-13T04:38:02;65176.66;;;-145.13;100.00
60705;BME280;46545;38.014;-7.874;2023-07-13T04:40:03;65176.66;;;-145.13;100.00
60705;BME280;46545;38.014;-7.874;2023-07-13T04:42:04;65176.66;;;-145.13;100.00
60705;BME280;46545;38.014;-7.874;2023-07-13T04:44:05;65176.66;;;-145.13;100.00
60705;BME280;46545;38.014;-7.874;2023-07-13T04:46:08;65176.66;;;-145.13;100.00
60705;BME280;46545;38.014;-7.874;2023-07-13T04:48:09;65176.66;;;-145.13;100.00
60705;BME280;46545;38.014;-7.874;2023-07-13T04:50:09;65176.66;;;-145.13;100.00
60705;BME280;46545;38.014;-7.874;2023-07-13T04:52:11;65176.66;;;-145.13;100.00
60705;BME280;46545;38.014;-7.874;2023-07-13T04:54:12;65176.66;;;-145.13;100.00
60705;BME280;46545;38.014;-7.874;2023-07-13T04:56:12;65176.66;;;-145.13;100.00
60705;BME280;46545;38.014;-7.874;2023-07-13T04:58:13;65176.66;;;-145.13;100.00
60705;BME280;46545;38.014;-7.874;2023-07-13T05:00:14;65176.66;;;-145.13;100.00
60705;BME280;46545;38.014;-7.874;2023-07-13T05:02:15;65176.66;;;-145.13;100.00
60705;BME280;46545;38.014;-7.874;2023-07-13T05:04:17;65176.66;;;-145.13;100.00
60705;BME280;46545;38.014;-7.874;2023-07-13T05:06:17;65176.66;;;-145.13;100.00
60705;BME280;46545;38.014;-7.874;2023-07-13T05:08:18;65176.66;;;-145.13;100.00
60705;BME280;46545;38.014;-7.874;2023-07-13T05:10:19;65176.66;;;-145.13;100.00
60705;BME280;46545;38.014;-7.874;2023-07-13T05:12:19;65176.66;;;-145.13;100.00
60705;BME280;46545;38.014;-7.874;2023-07-13T05:14:20;65176.66;;;-145.13;100.00
60705;BME280;46545;38.014;-7.874;2023-07-13T05:16:20;65176.66;;;-145.13;100.00
60705;BME280;46545;38.014;-7.874;2023-07-13T05:18:21;65176.66;;;-145.13;100.00
60705;BME280;46545;38.014;-7.874;2023-07-13T05:20:22;65176.66;;;-145.13;100.00
60705;BME280;46545;38.014;-7.874;2023-07-13T05:22:22;65176.66;;;-145.13;100.00
60705;BME280;46545;38.014;-7.874;2023-07-13T05:24:23;65176.66;;;-145.13;100.00
60705;BME280;46545;38.014;-7.874;2023-07-13T05:26:24;65176.66;;;-145.13;100.00
60705;BME280;46545;38.014;-7.874;2023-07-13T05:28:25;65176.66;;;-145.13;100.00
60705;BME280;46545;38.014;-7.874;2023-07-13T05:30:26;65176.66;;;-145.13;100.00
60705;BME280;46545;38.014;-7.874;2023-07-13T05:32:27;65176.66;;;-145.13;100.00
60705;BME280;46545;38.014;-7.874;2023-07-13T05:34:27;65176.66;;;-145.13;100.00
60705;BME280;46545;38.014;-7.874;2023-07-13T05:36:28;65176.66;;;-145.13;100.00
60705;BME280;46545;38.014;-7.874;2023-07-13T05:38:29;65176.66;;;-145.13;100.00
60705;BME280;46545;38.014;-7.874;2023-07-13T05:40:29;65176.66;;;-145.13;100.00
60705;BME280;46545;38.014;-7.874;2023-07-13T05:42:30;65176.66;;;-145.13;100.00
60705;BME280;46545;38.014;-7.874;2023-07-13T05:44:31;65176.66;;;-145.13;100.00
60705;BME280;46545;38.014;-7.874;2023-07-13T05:46:32;65176.66;;;-145.13;100.00
60705;BME280;46545;38.014;-7.874;2023-07-13T05:48:33;65176.66;;;-145.13;100.00
60705;BME280;46545;38.014;-7.874;2023-07-13T05:50:33;65176.66;;;-145.13;100.00
60705;BME280;46545;38.014;-7.874;2023-07-13T05:52:34;65176.66;;;-145.13;100.00
60705;BME280;46545;38.014;-7.874;2023-07-13T05:54:35;65176.66;;;-145.13;100.00
60705;BME280;46545;38.014;-7.874;2023-07-13T05:56:36;65176.66;;;-145.13;100.00
60705;BME280;46545;38.014;-7.874;2023-07-13T05:58:37;65176.66;;;-145.13;100.00
60705;BME280;46545;38.014;-7.874;2023-07-13T06:00:38;65176.66;;;-145.13;100.00
60705;BME280;46545;38.014;-7.874;2023-07-13T06:02:39;65176.66;;;-145.13;100.00
60705;BME280;46545;38.014;-7.874;2023-07-13T06:04:40;65176.66;;;-145.13;100.00
60705;BME280;46545;38.014;-7.874;2023-07-13T06:06:40;65176.66;;;-145.13;100.00
60705;BME280;46545;38.014;-7.874;2023-07-13T06:08:41;65176.66;;;-145.13;100.00
60705;BME280;46545;38.014;-7.874;2023-07-13T06:10:42;65176.66;;;-145.13;100.00
60705;BME280;46545;38.014;-7.874;2023-07-13T06:12:42;65176.66;;;-145.13;100.00
60705;BME280;46545;38.014;-7.874;2023-07-13T06:14:43;65176.66;;;-145.13;100.00
60705;BME280;46545;38.014;-7.874;2023-07-13T06:16:44;65176.66;;;-145.13;100.00
60705;BME280;46545;38.014;-7.874;2023-07-13T06:18:44;65176.66;;;-145.13;100.00
60705;BME280;46545;38.014;-7.874;2023-07-13T06:20:45;65176.66;;;-145.13;100.00
60705;BME280;46545;38.014;-7.874;2023-07-13T06:22:46;65176.66;;;-145.13;100.00
60705;BME280;46545;38.014;-7.874;2023-07-13T06:24:46;65176.66;;;-145.13;100.00
60705;BME280;46545;38.014;-7.874;2023-07-13T06:26:47;65176.66;;;-145.13;100.00
60705;BME280;46545;38.014;-7.874;2023-07-13T06:28:48;65176.66;;;-145.13;100.00
60705;BME280;46545;38.014;-7.874;2023-07-13T06:30:48;65176.66;;;-145.13;100.00
60705;BME280;46545;38.014;-7.874;2023-07-13T06:32:49;65176.66;;;-145.13;100.00
60705;BME280;46545;38.014;-7.874;2023-07-13T06:34:50;65176.66;;;-145.13;100.00
60705;BME280;46545;38.014;-7.874;2023-07-13T06:36:52;65176.66;;;-145.13;100.00
60705;BME280;46545;38.014;-7.874;2023-07-13T06:38:52;99090.09;;;30.96;29.95
60705;BME280;46545;38.014;-7.874;2023-07-13T06:40:53;65176.66;;;-145.13;100.00
60705;BME280;46545;38.014;-7.874;2023-07-13T06:42:54;65176.66;;;-145.13;100.00
60705;BME280;46545;38.014;-7.874;2023-07-13T06:44:54;65176.66;;;-145.13;100.00
60705;BME280;46545;38.014;-7.874;2023-07-13T06:46:55;65176.66;;;-145.13;100.00
60705;BME280;46545;38.014;-7.874;2023-07-13T06:48:56;65176.66;;;-145.13;100.00
60705;BME280;46545;38.014;-7.874;2023-07-13T06:50:57;99106.38;;;35.69;22.40
60705;BME280;46545;38.014;-7.874;2023-07-13T06:52:57;65176.66;;;-145.13;100.00
60705;BME280;46545;38.014;-7.874;2023-07-13T06:55:00;99115.81;;;36.69;20.66
60705;BME280;46545;38.014;-7.874;2023-07-13T06:57:00;99110.03;;;36.49;20.89
60705;BME280;46545;38.014;-7.874;2023-07-13T06:59:01;99115.63;;;37.45;19.61
60705;BME280;46545;38.014;-7.874;2023-07-13T07:01:02;99111.50;;;38.04;19.53
60705;BME280;46545;38.014;-7.874;2023-07-13T07:03:03;99109.69;;;38.61;19.12
60705;BME280;46545;38.014;-7.874;2023-07-13T07:05:04;99107.66;;;38.81;18.09
60705;BME280;46545;38.014;-7.874;2023-07-13T07:07:04;99108.88;;;39.00;17.74
60705;BME280;46545;38.014;-7.874;2023-07-13T07:09:05;99101.38;;;38.97;17.68
60705;BME280;46545;38.014;-7.874;2023-07-13T07:11:11;99111.56;;;38.24;17.92
60705;BME280;46545;38.014;-7.874;2023-07-13T07:13:12;99115.66;;;39.19;18.22
60705;BME280;46545;38.014;-7.874;2023-07-13T07:15:13;99111.19;;;38.65;16.49
60705;BME280;46545;38.014;-7.874;2023-07-13T07:17:14;99118.97;;;38.98;16.95
60705;BME280;46545;38.014;-7.874;2023-07-13T07:19:15;99108.13;;;39.69;15.93
60705;BME280;46545;38.014;-7.874;2023-07-13T07:21:16;99121.91;;;39.80;15.69
60705;BME280;46545;38.014;-7.874;2023-07-13T07:23:16;99116.34;;;40.25;15.37
60705;BME280;46545;38.014;-7.874;2023-07-13T07:25:17;99128.19;;;41.04;14.01
60705;BME280;46545;38.014;-7.874;2023-07-13T07:27:18;99130.72;;;41.28;13.57
60705;BME280;46545;38.014;-7.874;2023-07-13T07:29:18;99130.44;;;40.97;13.87
60705;BME280;46545;38.014;-7.874;2023-07-13T07:31:19;99134.78;;;41.27;13.54
60705;BME280;46545;38.014;-7.874;2023-07-13T07:33:20;99139.31;;;40.66;13.85
60705;BME280;46545;38.014;-7.874;2023-07-13T07:35:20;99137.19;;;40.70;14.19
60705;BME280;46545;38.014;-7.874;2023-07-13T07:37:21;99131.13;;;41.01;13.87
60705;BME280;46545;38.014;-7.874;2023-07-13T07:39:22;99134.50;;;40.96;14.32
60705;BME280;46545;38.014;-7.874;2023-07-13T07:41:22;99140.03;;;40.08;15.04
60705;BME280;46545;38.014;-7.874;2023-07-13T07:43:23;99134.78;;;39.77;15.22
60705;BME280;46545;38.014;-7.874;2023-07-13T07:45:24;99140.31;;;40.30;14.61
60705;BME280;46545;38.014;-7.874;2023-07-13T07:47:24;99134.84;;;40.68;14.77
60705;BME280;46545;38.014;-7.874;2023-07-13T07:49:25;99134.94;;;41.07;13.97
60705;BME280;46545;38.014;-7.874;2023-07-13T07:51:26;99141.13;;;41.02;14.07
60705;BME280;46545;38.014;-7.874;2023-07-13T07:53:26;99139.34;;;40.04;15.23
60705;BME280;46545;38.014;-7.874;2023-07-13T07:55:27;99137.81;;;40.78;14.94
60705;BME280;46545;38.014;-7.874;2023-07-13T07:57:28;99132.44;;;40.83;14.99
60705;BME280;46545;38.014;-7.874;2023-07-13T07:59:28;99142.31;;;41.56;14.38
60705;BME280;46545;38.014;-7.874;2023-07-13T08:01:29;99135.75;;;41.97;13.81
60705;BME280;46545;38.014;-7.874;2023-07-13T08:03:29;99131.28;;;41.48;14.15
60705;BME280;46545;38.014;-7.874;2023-07-13T08:05:30;99141.72;;;41.99;13.84
60705;BME280;46545;38.014;-7.874;2023-07-13T08:07:31;99141.09;;;42.17;13.51
60705;BME280;46545;38.014;-7.874;2023-07-13T08:09:32;99139.47;;;41.94;13.58
60705;BME280;46545;38.014;-7.874;2023-07-13T08:11:33;99143.53;;;42.06;13.01
60705;BME280;46545;38.014;-7.874;2023-07-13T08:13:34;99136.63;;;42.07;12.93
60705;BME280;46545;38.014;-7.874;2023-07-13T08:15:36;99139.50;;;41.30;14.14
60705;BME280;46545;38.014;-7.874;2023-07-13T08:17:36;99143.81;;;41.60;14.05
60705;BME280;46545;38.014;-7.874;2023-07-13T08:19:37;99132.63;;;40.76;14.56
60705;BME280;46545;38.014;-7.874;2023-07-13T08:21:38;99147.38;;;41.73;13.86
60705;BME280;46545;38.014;-7.874;2023-07-13T08:23:38;99150.44;;;41.66;13.13
60705;BME280;46545;38.014;-7.874;2023-07-13T08:25:39;99144.56;;;41.48;13.17
60705;BME280;46545;38.014;-7.874;2023-07-13T08:27:39;99142.53;;;41.87;13.08
60705;BME280;46545;38.014;-7.874;2023-07-13T08:29:40;99141.94;;;42.52;12.76
60705;BME280;46545;38.014;-7.874;2023-07-13T08:31:41;99133.41;;;41.31;13.89
60705;BME280;46545;38.014;-7.874;2023-07-13T08:33:41;99134.19;;;41.19;13.87
60705;BME280;46545;38.014;-7.874;2023-07-13T08:35:42;99131.16;;;42.03;13.73
60705;BME280;46545;38.014;-7.874;2023-07-13T08:37:45;99132.63;;;42.30;13.37
60705;BME280;46545;38.014;-7.874;2023-07-13T08:39:46;99132.34;;;42.50;13.10
60705;BME280;46545;38.014;-7.874;2023-07-13T08:41:51;99129.47;;;42.85;13.01
60705;BME280;46545;38.014;-7.874;2023-07-13T08:43:57;99130.00;;;42.92;12.89
60705;BME280;46545;38.014;-7.874;2023-07-13T08:46:23;99126.66;;;43.16;12.56
60705;BME280;46545;38.014;-7.874;2023-07-13T08:48:38;99131.63;;;42.81;12.76
60705;BME280;46545;38.014;-7.874;2023-07-13T08:53:19;99124.47;;;43.42;12.31
60705;BME280;46545;38.014;-7.874;2023-07-13T08:55:26;99119.94;;;43.13;12.64
60705;BME280;46545;38.014;-7.874;2023-07-13T08:57:32;99122.09;;;43.09;12.72
60705;BME280;46545;38.014;-7.874;2023-07-13T08:59:34;99119.69;;;42.99;12.56
60705;BME280;46545;38.014;-7.874;2023-07-13T09:02:00;99119.47;;;43.46;12.41
60705;BME280;46545;38.014;-7.874;2023-07-13T09:06:14;99122.06;;;43.31;12.80
60705;BME280;46545;38.014;-7.874;2023-07-13T09:14:51;99111.56;;;42.79;13.04
60705;BME280;46545;38.014;-7.874;2023-07-13T09:16:53;99111.28;;;42.42;12.55
60705;BME280;46545;38.014;-7.874;2023-07-13T09:18:56;99110.03;;;41.73;13.53
60705;BME280;46545;38.014;-7.874;2023-07-13T09:21:03;99110.03;;;41.73;13.53
60705;BME280;46545;38.014;-7.874;2023-07-13T09:23:14;99107.16;;;40.96;13.32
60705;BME280;46545;38.014;-7.874;2023-07-13T09:25:33;99106.56;;;39.15;14.59
60705;BME280;46545;38.014;-7.874;2023-07-13T09:27:45;65176.66;;;-145.13;100.00
60705;BME280;46545;38.014;-7.874;2023-07-13T09:30:02;65176.66;;;-145.13;100.00
60705;BME280;46545;38.014;-7.874;2023-07-13T09:32:06;65176.66;;;-145.13;100.00
60705;BME280;46545;38.014;-7.874;2023-07-13T09:34:11;65176.66;;;-145.13;100.00
60705;BME280;46545;38.014;-7.874;2023-07-13T09:36:29;65176.66;;;-145.13;100.00
60705;BME280;46545;38.014;-7.874;2023-07-13T09:38:30;65176.66;;;-145.13;100.00
60705;BME280;46545;38.014;-7.874;2023-07-13T09:40:49;65176.66;;;-145.13;100.00
60705;BME280;46545;38.014;-7.874;2023-07-13T09:42:56;65176.66;;;-145.13;100.00
60705;BME280;46545;38.014;-7.874;2023-07-13T09:45:00;65176.66;;;-145.13;100.00
60705;BME280;46545;38.014;-7.874;2023-07-13T09:47:03;65176.66;;;-145.13;100.00
60705;BME280;46545;38.014;-7.874;2023-07-13T09:49:15;65176.66;;;-145.13;100.00
60705;BME280;46545;38.014;-7.874;2023-07-13T09:51:16;65176.66;;;-145.13;100.00
60705;BME280;46545;38.014;-7.874;2023-07-13T09:53:19;65176.66;;;-145.13;100.00
60705;BME280;46545;38.014;-7.874;2023-07-13T09:55:24;65176.66;;;-145.13;100.00
60705;BME280;46545;38.014;-7.874;2023-07-13T09:57:27;65176.66;;;-145.13;100.00
60705;BME280;46545;38.014;-7.874;2023-07-13T09:59:34;65176.66;;;-145.13;100.00
60705;BME280;46545;38.014;-7.874;2023-07-13T10:01:38;65176.66;;;-145.13;100.00
60705;BME280;46545;38.014;-7.874;2023-07-13T10:03:39;65176.66;;;-145.13;100.00
60705;BME280;46545;38.014;-7.874;2023-07-13T10:05:42;65176.66;;;-145.13;100.00
60705;BME280;46545;38.014;-7.874;2023-07-13T10:07:44;65176.66;;;-145.13;100.00
60705;BME280;46545;38.014;-7.874;2023-07-13T10:09:45;65176.66;;;-145.13;100.00
60705;BME280;46545;38.014;-7.874;2023-07-13T10:11:45;65176.66;;;-145.13;100.00
60705;BME280;46545;38.014;-7.874;2023-07-13T10:13:57;65176.66;;;-145.13;100.00
60705;BME280;46545;38.014;-7.874;2023-07-13T10:15:59;65176.66;;;-145.13;100.00
60705;BME280;46545;38.014;-7.874;2023-07-13T10:18:00;65176.66;;;-145.13;100.00
60705;BME280;46545;38.014;-7.874;2023-07-13T10:20:04;65176.66;;;-145.13;100.00
60705;BME280;46545;38.014;-7.874;2023-07-13T10:24:22;65176.66;;;-145.13;100.00
60705;BME280;46545;38.014;-7.874;2023-07-13T10:26:29;65176.66;;;-145.13;100.00
60705;BME280;46545;38.014;-7.874;2023-07-13T10:28:35;65176.66;;;-145.13;100.00
60705;BME280;46545;38.014;-7.874;2023-07-13T10:30:40;65176.66;;;-145.13;100.00
60705;BME280;46545;38.014;-7.874;2023-07-13T10:32:43;65176.66;;;-145.13;100.00
60705;BME280;46545;38.014;-7.874;2023-07-13T10:34:46;65176.66;;;-145.13;100.00